Time;durP1;ratioP1;P1;durP2;ratioP2;P2;SDS_P1;SDS_P2;PMS_P1;PMS_P2;Temp;Humidity;BMP_temperature;BMP_pressure;BME280_temperature;BME280_humidity;BME280_pressure;Samples;Min_cycle;Max_cycle;Signal;HPM_P1;HPM_P2
2022/04/27 00:02:17;;;;;;;1.37;0.47;;;7.70;99.90;;;;;;5034791;28;20977;-76
2022/04/27 00:04:44;;;;;;;0.30;0.20;;;7.70;99.90;;;;;;5034787;28;20933;-77
2022/04/27 00:07:11;;;;;;;1.47;0.87;;;7.70;99.90;;;;;;5035084;28;20454;-74
2022/04/27 00:09:37;;;;;;;0.30;0.30;;;7.70;99.90;;;;;;5035010;28;20443;-74
2022/04/27 00:12:06;;;;;;;0.30;0.30;;;7.70;99.90;;;;;;5034919;28;20470;-74
2022/04/27 00:14:33;;;;;;;0.30;0.30;;;7.70;99.90;;;;;;5034593;28;20438;-74
2022/04/27 00:17:00;;;;;;;0.40;0.30;;;7.70;99.90;;;;;;5034592;28;20443;-75
2022/04/27 00:19:27;;;;;;;0.90;0.90;;;7.70;99.90;;;;;;5034410;28;21021;-74
2022/04/27 00:21:54;;;;;;;1.73;0.67;;;7.70;99.90;;;;;;5034726;28;20498;-76
2022/04/27 00:24:20;;;;;;;0.30;0.30;;;7.70;99.90;;;;;;5034768;28;20442;-76
2022/04/27 00:26:47;;;;;;;0.73;0.73;;;7.80;99.90;;;;;;5034689;28;20443;-76
2022/04/27 00:29:15;;;;;;;0.60;0.60;;;7.80;99.90;;;;;;5034659;28;20438;-77
2022/04/27 00:31:42;;;;;;;0.40;0.30;;;7.80;99.90;;;;;;5034497;28;20474;-77
2022/04/27 00:34:09;;;;;;;0.30;0.30;;;7.80;99.90;;;;;;5034141;28;20486;-76
2022/04/27 00:36:36;;;;;;;0.40;0.40;;;7.80;99.90;;;;;;5034182;28;20446;-77
2022/04/27 00:39:03;;;;;;;1.10;0.53;;;7.80;99.90;;;;;;5034357;28;20470;-77
2022/04/27 00:41:30;;;;;;;0.40;0.40;;;7.80;99.90;;;;;;5034293;28;20492;-77
2022/04/27 00:43:57;;;;;;;0.80;0.67;;;7.80;99.90;;;;;;5034342;28;20446;-77
2022/04/27 00:46:25;;;;;;;0.60;0.60;;;7.80;99.90;;;;;;5033984;28;20454;-76
2022/04/27 00:48:51;;;;;;;0.30;0.30;;;7.80;99.90;;;;;;5033921;28;20808;-77
2022/04/27 00:51:19;;;;;;;0.30;0.30;;;7.80;99.90;;;;;;5034154;28;20470;-77
2022/04/27 00:53:46;;;;;;;3.80;0.80;;;7.80;99.90;;;;;;5034169;28;20455;-77
2022/04/27 00:56:13;;;;;;;0.30;0.30;;;7.80;99.90;;;;;;5034145;28;20820;-76
2022/04/27 00:58:40;;;;;;;1.03;0.93;;;7.80;99.90;;;;;;5034033;28;20479;-76
2022/04/27 01:01:06;;;;;;;0.80;0.80;;;7.70;99.90;;;;;;5033953;28;20470;-77
2022/04/27 01:03:37;;;;;;;1.63;1.03;;;7.70;99.90;;;;;;5033717;28;20805;-76
2022/04/27 01:06:04;;;;;;;0.40;0.40;;;7.70;99.90;;;;;;5034035;28;20431;-77
2022/04/27 01:08:32;;;;;;;1.80;0.50;;;7.70;99.90;;;;;;5033879;28;20446;-77
2022/04/27 01:11:00;;;;;;;0.50;0.50;;;7.70;99.90;;;;;;5033816;28;20448;-77
2022/04/27 01:13:28;;;;;;;0.40;0.37;;;7.70;99.90;;;;;;5034637;28;20799;-77
2022/04/27 01:15:55;;;;;;;1.27;0.67;;;7.70;99.90;;;;;;5033493;28;20960;-76
2022/04/27 01:18:22;;;;;;;0.40;0.40;;;7.70;99.90;;;;;;5033350;28;21003;-77
2022/04/27 01:20:51;;;;;;;0.50;0.43;;;7.70;99.90;;;;;;5033588;28;20450;-76
2022/04/27 01:23:18;;;;;;;0.40;0.30;;;7.70;99.90;;;;;;5033673;28;20847;-77
2022/04/27 01:25:50;;;;;;;0.53;0.50;;;7.70;99.90;;;;;;5033622;28;20490;-76
2022/04/27 01:28:18;;;;;;;0.50;0.50;;;7.70;99.90;;;;;;5033344;28;20431;-77
2022/04/27 01:30:45;;;;;;;0.97;0.97;;;7.70;99.90;;;;;;5033734;28;20790;-77
2022/04/27 01:33:13;;;;;;;0.60;0.60;;;7.70;99.90;;;;;;5033302;28;20454;-77
2022/04/27 01:35:40;;;;;;;1.00;0.50;;;7.70;99.90;;;;;;5032991;28;20839;-77
2022/04/27 01:38:08;;;;;;;0.77;0.77;;;7.70;99.90;;;;;;5033383;28;20443;-77
2022/04/27 01:40:36;;;;;;;0.70;0.57;;;7.70;99.90;;;;;;5033321;28;20479;-77
2022/04/27 01:43:04;;;;;;;1.60;0.90;;;7.80;99.90;;;;;;5033291;28;20480;-77
2022/04/27 01:45:30;;;;;;;2.73;0.80;;;7.80;99.90;;;;;;5033335;28;20529;-77
2022/04/27 01:47:58;;;;;;;1.07;0.50;;;7.80;99.90;;;;;;5032559;28;20450;-77
2022/04/27 01:50:24;;;;;;;0.53;0.53;;;7.80;99.90;;;;;;5033265;28;20550;-77
2022/04/27 01:55:37;;;;;;;0.77;0.77;;;7.80;99.90;;;;;;5033316;28;20406;-77
2022/04/27 01:58:04;;;;;;;1.17;1.17;;;7.80;99.90;;;;;;5015499;28;20511;-78
2022/04/27 02:00:31;;;;;;;0.37;0.37;;;7.80;99.90;;;;;;5033011;28;20501;-77
2022/04/27 02:02:57;;;;;;;0.80;0.80;;;7.80;99.90;;;;;;5032778;28;20996;-77
2022/04/27 02:05:24;;;;;;;0.50;0.40;;;7.80;99.90;;;;;;5032775;28;20937;-77
2022/04/27 02:07:51;;;;;;;1.10;0.60;;;7.80;99.90;;;;;;5033063;28;20462;-77
2022/04/27 02:10:18;;;;;;;1.17;0.53;;;7.90;99.90;;;;;;5033027;28;20450;-77
2022/04/27 02:12:46;;;;;;;0.40;0.40;;;7.80;99.90;;;;;;5032953;28;20470;-77
2022/04/27 02:15:13;;;;;;;0.70;0.70;;;7.80;99.90;;;;;;5032680;28;20937;-77
2022/04/27 02:17:40;;;;;;;1.47;1.37;;;7.80;99.90;;;;;;5032664;28;20455;-78
2022/04/27 02:20:08;;;;;;;2.20;1.00;;;7.80;99.90;;;;;;5032600;28;20525;-77
2022/04/27 02:22:35;;;;;;;0.70;0.70;;;7.90;99.90;;;;;;5032815;28;20466;-77
2022/04/27 02:25:02;;;;;;;1.10;0.50;;;7.90;99.90;;;;;;5032613;28;20450;-77
2022/04/27 02:27:29;;;;;;;0.60;0.57;;;7.90;99.90;;;;;;5032982;28;20809;-77
2022/04/27 02:29:57;;;;;;;1.47;0.50;;;7.90;99.90;;;;;;5032541;28;20443;-77
2022/04/27 02:32:24;;;;;;;0.73;0.70;;;7.90;99.90;;;;;;5032791;28;20497;-77
2022/04/27 02:34:52;;;;;;;0.70;0.70;;;7.90;99.90;;;;;;5032307;28;20482;-78
2022/04/27 02:37:18;;;;;;;0.37;0.37;;;7.90;99.90;;;;;;5032504;28;20961;-77
2022/04/27 02:39:45;;;;;;;0.50;0.50;;;7.90;99.90;;;;;;5032712;28;20889;-77
2022/04/27 02:42:12;;;;;;;1.20;0.43;;;7.90;99.90;;;;;;5032901;28;20521;-77
2022/04/27 02:44:39;;;;;;;0.30;0.30;;;7.90;99.90;;;;;;5032736;28;20454;-77
2022/04/27 02:47:07;;;;;;;0.93;0.50;;;7.90;99.90;;;;;;5032772;28;20500;-77
2022/04/27 02:52:18;;;;;;;0.77;0.40;;;7.90;99.90;;;;;;5032574;28;20489;-77
2022/04/27 02:54:45;;;;;;;0.80;0.80;;;7.90;99.90;;;;;;5032639;28;20446;-77
2022/04/27 02:57:11;;;;;;;0.50;0.50;;;7.90;99.90;;;;;;5032660;28;20447;-77
2022/04/27 02:59:38;;;;;;;0.93;0.47;;;7.90;99.90;;;;;;5035952;28;20474;-77
2022/04/27 03:02:06;;;;;;;1.27;1.20;;;7.80;99.90;;;;;;5036200;28;20467;-77
2022/04/27 03:04:33;;;;;;;2.10;0.60;;;7.90;99.90;;;;;;5035919;28;20438;-78
2022/04/27 03:06:59;;;;;;;0.60;0.60;;;7.90;99.90;;;;;;5036225;28;20458;-77
2022/04/27 03:09:26;;;;;;;2.73;1.67;;;7.90;99.90;;;;;;5035821;28;20941;-77
2022/04/27 03:11:53;;;;;;;0.40;0.40;;;8.00;99.90;;;;;;5036087;28;20473;-77
2022/04/27 03:14:20;;;;;;;0.80;0.80;;;8.00;99.90;;;;;;5036619;28;20607;-77
2022/04/27 03:16:47;;;;;;;2.00;0.80;;;8.00;99.90;;;;;;5036021;28;20473;-77
2022/04/27 03:19:15;;;;;;;0.90;0.90;;;8.00;99.90;;;;;;5036678;28;20489;-77
2022/04/27 03:21:42;;;;;;;0.47;0.47;;;7.90;99.90;;;;;;5035842;28;20466;-77
2022/04/27 03:24:09;;;;;;;1.33;0.33;;;8.00;99.90;;;;;;5035863;28;20451;-77
2022/04/27 03:26:36;;;;;;;0.40;0.40;;;8.00;99.90;;;;;;5035861;28;20457;-78
2022/04/27 03:29:04;;;;;;;0.43;0.43;;;8.00;99.90;;;;;;5035476;28;20961;-77
2022/04/27 03:31:32;;;;;;;1.90;0.50;;;8.00;99.90;;;;;;5035359;28;20505;-77
2022/04/27 03:33:59;;;;;;;0.40;0.40;;;8.00;99.90;;;;;;5035293;28;20470;-77
2022/04/27 03:36:27;;;;;;;2.17;0.50;;;8.00;99.90;;;;;;5035714;28;20427;-77
2022/04/27 03:38:54;;;;;;;0.87;0.50;;;8.00;99.90;;;;;;5035227;28;20446;-77
2022/04/27 03:41:22;;;;;;;2.10;0.53;;;7.90;99.90;;;;;;5035498;28;20570;-77
2022/04/27 03:43:49;;;;;;;4.47;0.70;;;7.90;99.90;;;;;;5035240;28;20447;-77
2022/04/27 03:46:16;;;;;;;0.30;0.30;;;7.90;99.90;;;;;;5035151;28;20968;-77
2022/04/27 03:48:43;;;;;;;0.50;0.33;;;7.90;99.90;;;;;;5035451;28;20458;-77
2022/04/27 03:51:10;;;;;;;0.30;0.30;;;7.90;99.90;;;;;;5035858;28;20462;-77
2022/04/27 03:53:38;;;;;;;1.10;0.40;;;8.00;99.90;;;;;;5035312;28;20454;-77
2022/04/27 03:56:06;;;;;;;2.57;0.60;;;7.90;99.90;;;;;;5035286;28;20477;-74
2022/04/27 03:58:33;;;;;;;0.40;0.30;;;7.90;99.90;;;;;;5035256;28;20451;-74
2022/04/27 04:00:59;;;;;;;1.03;0.70;;;7.90;99.90;;;;;;5035057;28;20494;-74
2022/04/27 04:03:26;;;;;;;2.07;1.87;;;7.90;99.90;;;;;;5035141;28;20458;-74
2022/04/27 04:05:54;;;;;;;1.73;0.73;;;7.90;99.90;;;;;;5035092;28;20450;-74
2022/04/27 04:08:20;;;;;;;1.40;1.30;;;7.90;99.90;;;;;;5035021;28;20446;-74
2022/04/27 04:10:48;;;;;;;0.30;0.30;;;7.80;99.90;;;;;;5034165;28;20449;-74
2022/04/27 04:13:15;;;;;;;2.63;2.43;;;7.80;99.90;;;;;;5034643;28;20924;-74
2022/04/27 04:15:43;;;;;;;0.80;0.50;;;7.80;99.90;;;;;;5034905;28;20447;-74
2022/04/27 04:18:09;;;;;;;1.83;0.63;;;7.80;99.90;;;;;;5034542;28;20946;-74
2022/04/27 04:20:36;;;;;;;0.70;0.50;;;7.90;99.90;;;;;;5034719;28;20488;-74
2022/04/27 04:23:03;;;;;;;0.97;0.97;;;7.80;99.90;;;;;;5034653;28;20470;-74
2022/04/27 04:28:33;;;;;;;0.93;0.80;;;7.80;99.90;;;;;;5034514;28;20498;-74
2022/04/27 04:31:01;;;;;;;0.80;0.40;;;7.70;99.90;;;;;;5034578;28;20435;-73
2022/04/27 04:33:28;;;;;;;0.60;0.43;;;7.70;99.90;;;;;;5034182;28;20918;-74
2022/04/27 04:35:55;;;;;;;0.80;0.60;;;7.70;99.90;;;;;;5034554;28;20434;-73
2022/04/27 04:38:23;;;;;;;0.97;0.97;;;7.70;99.90;;;;;;5034187;28;20442;-73
2022/04/27 04:40:50;;;;;;;0.63;0.63;;;7.80;99.90;;;;;;5034021;28;21007;-73
2022/04/27 04:43:18;;;;;;;0.30;0.20;;;7.80;99.90;;;;;;5034077;28;20447;-74
2022/04/27 04:45:45;;;;;;;0.30;0.30;;;7.70;99.90;;;;;;5034354;28;20447;-74
2022/04/27 04:48:12;;;;;;;4.37;0.87;;;7.70;99.90;;;;;;5034287;28;20443;-74
2022/04/27 04:50:39;;;;;;;0.73;0.73;;;7.70;99.90;;;;;;5033939;28;20863;-74
2022/04/27 04:53:06;;;;;;;2.00;0.60;;;7.80;99.90;;;;;;5033807;28;20467;-74
2022/04/27 04:55:33;;;;;;;2.00;0.70;;;7.80;99.90;;;;;;5034190;28;20446;-74
2022/04/27 04:57:59;;;;;;;1.47;0.70;;;7.80;99.90;;;;;;5033816;28;20866;-74
2022/04/27 05:00:27;;;;;;;0.87;0.67;;;7.90;99.90;;;;;;5034121;28;20918;-74
2022/04/27 05:02:54;;;;;;;0.60;0.60;;;7.90;99.90;;;;;;5033946;28;20474;-74
2022/04/27 05:05:21;;;;;;;0.80;0.43;;;7.90;99.90;;;;;;5033969;28;20453;-73
2022/04/27 05:07:48;;;;;;;0.60;0.60;;;8.00;99.90;;;;;;5033897;28;20442;-74
2022/04/27 05:10:14;;;;;;;2.20;0.40;;;8.00;99.90;;;;;;5033640;28;20952;-74
2022/04/27 05:12:41;;;;;;;0.30;0.30;;;8.10;99.90;;;;;;5033785;28;20470;-74
2022/04/27 05:15:09;;;;;;;1.83;0.40;;;8.10;99.90;;;;;;5033494;28;20909;-74
2022/04/27 05:17:37;;;;;;;1.10;0.50;;;8.20;99.90;;;;;;5033731;28;20454;-74
2022/04/27 05:20:05;;;;;;;1.27;0.80;;;8.20;99.90;;;;;;5033320;28;20819;-74
2022/04/27 05:22:38;;;;;;;0.70;0.57;;;8.20;99.90;;;;;;5033246;28;21000;-74
2022/04/27 05:25:06;;;;;;;0.30;0.30;;;8.20;99.90;;;;;;5033598;28;20450;-74
2022/04/27 05:27:33;;;;;;;0.30;0.30;;;8.20;99.90;;;;;;5033415;28;20864;-76
2022/04/27 05:32:46;;;;;;;0.70;0.47;;;8.20;99.90;;;;;;5033407;28;20516;-73
2022/04/27 05:35:13;;;;;;;2.93;0.50;;;8.20;99.90;;;;;;5033059;28;20474;-74
2022/04/27 05:37:40;;;;;;;1.73;1.00;;;8.30;99.90;;;;;;5033391;28;20502;-73
2022/04/27 05:40:09;;;;;;;0.40;0.40;;;8.30;99.90;;;;;;5033321;28;20529;-73
2022/04/27 05:42:37;;;;;;;0.60;0.60;;;8.30;99.90;;;;;;5033280;28;20467;-73
2022/04/27 05:45:04;;;;;;;1.43;1.33;;;8.30;99.90;;;;;;5033323;28;20442;-73
2022/04/27 05:47:31;;;;;;;0.97;0.40;;;8.40;99.90;;;;;;5033269;28;20454;-73
2022/04/27 05:49:59;;;;;;;1.53;0.67;;;8.50;99.90;;;;;;5033235;28;20789;-73
2022/04/27 05:52:26;;;;;;;0.70;0.50;;;8.50;99.90;;;;;;5033143;28;20497;-73
2022/04/27 05:54:53;;;;;;;0.30;0.30;;;8.50;99.90;;;;;;5032876;28;20454;-73
2022/04/27 05:57:20;;;;;;;4.20;1.03;;;8.50;99.90;;;;;;5033113;28;20458;-73
2022/04/27 05:59:47;;;;;;;2.63;2.53;;;8.60;99.90;;;;;;5033059;28;20530;-73
2022/04/27 06:02:14;;;;;;;0.93;0.53;;;8.60;99.90;;;;;;5033024;28;20471;-73
2022/04/27 06:04:41;;;;;;;1.43;0.60;;;8.60;99.90;;;;;;5032781;28;20946;-73
2022/04/27 06:07:09;;;;;;;0.87;0.87;;;8.60;99.90;;;;;;5033057;28;20457;-73
2022/04/27 06:09:36;;;;;;;0.80;0.53;;;8.60;99.90;;;;;;5032750;28;20818;-73
2022/04/27 06:12:05;;;;;;;1.43;1.33;;;8.60;99.90;;;;;;5032654;28;20805;-73
2022/04/27 06:14:32;;;;;;;0.67;0.67;;;8.50;99.90;;;;;;5033005;28;20451;-73
2022/04/27 06:16:58;;;;;;;0.77;0.77;;;8.50;99.90;;;;;;5033006;28;20450;-73
2022/04/27 06:19:25;;;;;;;0.83;0.50;;;8.50;99.90;;;;;;5032971;28;20447;-73
2022/04/27 06:21:52;;;;;;;0.60;0.60;;;8.60;99.90;;;;;;5032524;28;20856;-73
2022/04/27 06:24:20;;;;;;;0.60;0.60;;;8.60;99.90;;;;;;5032922;28;20446;-73
2022/04/27 06:26:46;;;;;;;2.83;0.60;;;8.60;99.90;;;;;;5032538;28;20946;-73
2022/04/27 06:29:13;;;;;;;0.57;0.40;;;8.60;99.90;;;;;;5032837;28;20450;-73
2022/04/27 06:31:40;;;;;;;1.47;0.73;;;8.60;99.90;;;;;;5032770;28;20458;-74
2022/04/27 06:34:06;;;;;;;1.00;0.60;;;8.60;99.90;;;;;;5035490;28;21000;-73
2022/04/27 06:36:34;;;;;;;1.70;0.70;;;8.70;99.90;;;;;;5036770;28;20435;-73
2022/04/27 06:39:01;;;;;;;1.40;0.90;;;8.70;99.90;;;;;;5036726;28;20537;-73
2022/04/27 06:41:29;;;;;;;0.30;0.30;;;8.80;99.90;;;;;;5036306;28;20482;-74
2022/04/27 06:43:56;;;;;;;1.07;0.80;;;8.80;99.90;;;;;;5036658;28;20471;-73
2022/04/27 07:07:07;;;;;;;0.43;0.43;;;9.20;99.90;;;;;;5379404;22;20485;-85
2022/04/27 07:09:34;;;;;;;1.13;0.60;;;9.10;99.90;;;;;;5037174;28;20458;-85
2022/04/27 07:12:01;;;;;;;1.80;0.80;;;9.10;99.90;;;;;;5036355;28;20479;-86
2022/04/27 07:14:28;;;;;;;0.40;0.40;;;9.10;99.90;;;;;;5036675;28;20466;-85
2022/04/27 07:16:55;;;;;;;0.93;0.53;;;9.10;99.90;;;;;;5036344;28;20497;-85
2022/04/27 07:19:21;;;;;;;1.70;1.47;;;9.20;99.90;;;;;;5036655;28;20454;-85
2022/04/27 07:21:48;;;;;;;1.90;0.50;;;9.30;99.90;;;;;;5036250;28;20490;-85
2022/04/27 07:24:16;;;;;;;1.17;0.83;;;9.40;99.90;;;;;;5036009;28;20820;-85
2022/04/27 07:26:43;;;;;;;1.63;1.30;;;9.50;99.90;;;;;;5036199;28;20447;-86
2022/04/27 07:29:10;;;;;;;0.60;0.57;;;9.50;99.90;;;;;;5036230;28;20447;-86
2022/04/27 07:31:37;;;;;;;2.20;0.97;;;9.50;99.90;;;;;;5036272;28;20467;-86
2022/04/27 07:34:03;;;;;;;0.57;0.57;;;9.50;99.90;;;;;;5036317;28;20442;-86
2022/04/27 07:36:30;;;;;;;0.40;0.30;;;9.50;99.90;;;;;;5036340;28;20458;-85
2022/04/27 07:38:57;;;;;;;0.70;0.50;;;9.60;99.90;;;;;;5036074;28;20442;-85
2022/04/27 07:41:25;;;;;;;0.63;0.50;;;9.70;99.90;;;;;;5035952;28;20493;-86
2022/04/27 07:43:52;;;;;;;0.43;0.43;;;9.90;99.90;;;;;;5035344;28;20466;-85
2022/04/27 07:46:19;;;;;;;3.00;0.50;;;10.00;99.90;;;;;;5035074;28;20450;-85
2022/04/27 07:48:46;;;;;;;5.43;0.77;;;10.00;99.90;;;;;;5035683;28;20446;-84
2022/04/27 07:51:14;;;;;;;0.70;0.70;;;10.10;99.90;;;;;;5035512;28;20458;-84
2022/04/27 07:53:41;;;;;;;2.00;1.07;;;10.10;99.90;;;;;;5035845;28;20545;-85
2022/04/27 07:56:07;;;;;;;0.73;0.73;;;10.20;99.90;;;;;;5036227;28;20850;-85
2022/04/27 07:58:35;;;;;;;1.80;1.70;;;10.10;99.90;;;;;;5035760;28;20446;-85
2022/04/27 08:01:03;;;;;;;1.13;0.60;;;10.00;99.90;;;;;;5035561;28;20490;-85
2022/04/27 08:03:30;;;;;;;0.80;0.50;;;9.90;99.90;;;;;;5035716;28;20438;-85
2022/04/27 08:05:56;;;;;;;0.70;0.70;;;9.70;99.90;;;;;;5035399;28;20478;-85
2022/04/27 08:08:23;;;;;;;0.40;0.40;;;9.60;99.90;;;;;;5035812;28;20525;-85
2022/04/27 08:10:50;;;;;;;5.73;1.13;;;9.50;99.90;;;;;;5035531;28;20938;-85
2022/04/27 08:13:17;;;;;;;1.43;0.40;;;9.50;99.90;;;;;;5035282;28;20801;-85
2022/04/27 08:15:45;;;;;;;2.07;0.60;;;9.40;99.90;;;;;;5035415;28;20454;-85
2022/04/27 08:18:12;;;;;;;0.80;0.70;;;9.40;99.90;;;;;;5035377;28;20451;-85
2022/04/27 08:23:28;;;;;;;0.80;0.80;;;9.40;99.90;;;;;;5035280;28;20947;-85
2022/04/27 08:25:55;;;;;;;0.37;0.37;;;9.40;99.90;;;;;;5035058;28;20514;-86
2022/04/27 08:28:22;;;;;;;0.30;0.30;;;9.60;99.90;;;;;;5035068;28;20968;-85
2022/04/27 08:30:51;;;;;;;0.90;0.60;;;9.80;99.90;;;;;;5035178;28;20435;-85
2022/04/27 08:33:19;;;;;;;1.00;0.93;;;10.00;99.90;;;;;;5035292;28;20451;-85
2022/04/27 09:09:55;;;;;;;1.27;1.17;;;11.10;99.90;;;;;;6136520;23;21250;31
2022/04/27 09:14:51;;;;;;;0.50;0.30;;;10.90;99.90;;;;;;5013144;28;20485;-81
2022/04/27 09:33:34;;;;;;;6.50;1.53;;;11.50;99.90;;;;;;5812184;22;20453;-86
2022/04/27 09:36:02;;;;;;;0.73;0.73;;;11.80;99.90;;;;;;5218366;22;20494;-86
2022/04/27 09:38:40;;;;;;;1.77;1.13;;;12.50;99.90;;;;;;5034612;28;20537;-87
2022/04/27 09:41:06;;;;;;;0.53;0.53;;;13.20;99.90;;;;;;5035066;28;21004;-85
2022/04/27 09:43:42;;;;;;;1.77;1.33;;;13.80;99.90;;;;;;5034383;28;20422;-86
2022/04/27 09:46:17;;;;;;;1.37;0.70;;;14.30;99.90;;;;;;5034624;28;20902;-85
2022/04/27 09:48:49;;;;;;;0.60;0.53;;;14.50;99.90;;;;;;5034537;28;20453;-86
2022/04/27 09:51:16;;;;;;;1.30;0.80;;;14.70;99.90;;;;;;5033825;28;20520;-87
2022/04/27 09:53:45;;;;;;;0.70;0.53;;;14.70;99.90;;;;;;5034231;28;20454;-85
2022/04/27 09:56:13;;;;;;;1.00;1.00;;;15.00;99.90;;;;;;5034292;28;20522;-85
2022/04/27 09:58:44;;;;;;;1.47;0.80;;;15.20;99.90;;;;;;5033582;28;20438;-84
2022/04/27 10:06:23;;;;;;;2.50;1.00;;;15.00;99.90;;;;;;5789462;22;20848;-84
2022/04/27 10:08:51;;;;;;;1.60;0.60;;;15.00;99.90;;;;;;5612298;22;20684;-84
2022/04/27 10:14:00;;;;;;;1.23;0.50;;;14.80;99.90;;;;;;5309652;22;20603;-80
2022/04/27 10:16:28;;;;;;;0.60;0.60;;;14.70;99.90;;;;;;5206931;22;20507;-84
2022/04/27 10:18:55;;;;;;;1.00;0.70;;;14.60;99.90;;;;;;5032605;28;20783;-84
2022/04/27 10:21:43;;;;;;;2.63;0.80;;;14.60;99.90;;;;;;5032510;28;20490;-85
2022/04/27 10:24:11;;;;;;;7.90;0.80;;;14.50;99.90;;;;;;5032901;28;20439;-81
2022/04/27 10:26:39;;;;;;;2.37;1.00;;;14.50;99.90;;;;;;5032133;28;20450;-83
2022/04/27 10:29:08;;;;;;;0.50;0.50;;;14.50;99.90;;;;;;5032052;28;20459;-82
2022/04/27 10:32:05;;;;;;;0.47;0.43;;;14.30;99.90;;;;;;5032084;28;20490;-84
2022/04/27 10:34:33;;;;;;;1.10;0.87;;;14.00;99.90;;;;;;5032430;28;20436;-80
2022/04/27 10:37:03;;;;;;;1.60;0.50;;;13.90;99.90;;;;;;5032253;28;20450;-82
2022/04/27 10:39:31;;;;;;;0.40;0.40;;;14.10;99.90;;;;;;5032474;28;20525;-82
2022/04/27 10:42:27;;;;;;;1.33;1.27;;;14.30;99.90;;;;;;5034030;28;20501;-82
2022/04/27 10:45:09;;;;;;;3.70;0.67;;;14.50;99.90;;;;;;5032503;28;20423;-80
2022/04/27 10:47:41;;;;;;;0.40;0.37;;;14.60;99.90;;;;;;5031971;28;20431;-82
2022/04/27 10:50:21;;;;;;;0.70;0.30;;;14.50;99.90;;;;;;5032499;28;20442;-83
2022/04/27 10:52:51;;;;;;;1.77;1.67;;;14.60;99.90;;;;;;5032122;28;20460;-83
2022/04/27 10:55:43;;;;;;;0.83;0.83;;;14.40;99.90;;;;;;5032247;28;20466;-83
2022/04/27 10:58:16;;;;;;;0.43;0.43;;;14.20;99.90;;;;;;5032251;28;20437;-83
2022/04/27 11:01:20;;;;;;;0.77;0.67;;;14.00;99.90;;;;;;5032193;28;20458;-83
2022/04/27 11:04:04;;;;;;;2.40;0.50;;;13.70;99.90;;;;;;5001783;28;20505;-84
2022/04/27 11:06:57;;;;;;;0.50;0.50;;;13.50;99.90;;;;;;5030871;28;20473;-84
2022/04/27 11:09:35;;;;;;;1.77;1.10;;;13.30;99.90;;;;;;5031970;28;20477;-84
2022/04/27 11:12:02;;;;;;;0.33;0.30;;;13.20;99.90;;;;;;5031997;28;20467;-84
2022/04/27 11:14:31;;;;;;;0.60;0.60;;;13.10;99.90;;;;;;5031932;28;20449;-83
2022/04/27 11:16:58;;;;;;;0.77;0.77;;;13.10;99.90;;;;;;5011696;28;103558;-83
2022/04/27 11:19:34;;;;;;;1.60;0.70;;;13.10;99.90;;;;;;5034619;28;20431;-84
2022/04/27 11:22:13;;;;;;;0.63;0.47;;;13.00;99.90;;;;;;5036330;28;20481;-83
2022/04/27 11:24:42;;;;;;;1.10;0.53;;;12.80;99.90;;;;;;5036539;28;20546;-83
2022/04/27 11:27:10;;;;;;;0.87;0.50;;;12.80;99.90;;;;;;5036366;28;20435;-84
2022/04/27 11:29:38;;;;;;;0.30;0.30;;;12.70;99.90;;;;;;5036771;28;20514;-83
2022/04/27 11:32:06;;;;;;;0.50;0.40;;;12.80;99.90;;;;;;5036182;28;20458;-82
2022/04/27 11:34:33;;;;;;;0.87;0.40;;;12.80;99.90;;;;;;5035919;28;20949;-83
2022/04/27 11:37:15;;;;;;;0.90;0.57;;;12.70;99.90;;;;;;5035873;28;20435;-84
2022/04/27 11:39:44;;;;;;;0.40;0.40;;;12.70;99.90;;;;;;5036825;28;20447;-84
2022/04/27 11:42:12;;;;;;;0.70;0.70;;;12.70;99.90;;;;;;5035659;28;20556;-84
2022/04/27 11:44:39;;;;;;;0.40;0.30;;;12.70;99.90;;;;;;5036778;28;21000;-83
2022/04/27 11:47:26;;;;;;;0.40;0.40;;;12.70;99.90;;;;;;5035872;28;20442;-83
2022/04/27 11:49:57;;;;;;;1.23;0.53;;;12.70;99.90;;;;;;5036236;28;20435;-83
2022/04/27 11:52:26;;;;;;;0.50;0.50;;;12.60;99.90;;;;;;5035605;28;20451;-84
2022/04/27 11:55:00;;;;;;;0.90;0.70;;;12.60;99.90;;;;;;5036107;28;20431;-84
2022/04/27 11:57:27;;;;;;;0.57;0.40;;;12.60;99.90;;;;;;5035945;28;20443;-84
2022/04/27 11:59:57;;;;;;;4.63;0.80;;;12.70;99.90;;;;;;5035908;28;20459;-84
2022/04/27 12:02:26;;;;;;;1.17;1.13;;;13.00;99.90;;;;;;5035357;28;20485;-83
2022/04/27 12:04:56;;;;;;;0.40;0.40;;;13.10;99.90;;;;;;5036363;28;20482;-82
2022/04/27 12:07:23;;;;;;;2.03;0.80;;;13.20;99.90;;;;;;5035584;28;20815;-83
2022/04/27 12:09:59;;;;;;;1.93;0.70;;;13.40;99.90;;;;;;5035572;28;20450;-82
2022/04/27 12:12:27;;;;;;;0.40;0.40;;;13.60;99.90;;;;;;5035754;28;20473;-84
2022/04/27 12:14:54;;;;;;;1.07;0.73;;;13.70;99.90;;;;;;5035597;28;20435;-83
2022/04/27 12:17:49;;;;;;;1.00;0.47;;;13.80;99.90;;;;;;5035397;28;20422;-82
2022/04/27 12:20:31;;;;;;;1.43;0.43;;;13.90;99.90;;;;;;5035380;28;20454;-82
2022/04/27 12:23:00;;;;;;;0.67;0.40;;;14.10;99.90;;;;;;5035089;28;20487;-83
2022/04/27 12:25:41;;;;;;;2.67;0.90;;;14.10;99.90;;;;;;5035253;28;20451;-81
2022/04/27 12:28:10;;;;;;;0.70;0.43;;;13.90;99.90;;;;;;5035318;28;20869;-84
2022/04/27 12:30:44;;;;;;;0.80;0.40;;;13.80;99.90;;;;;;5034593;28;20446;-82
2022/04/27 12:33:12;;;;;;;0.40;0.40;;;13.70;99.90;;;;;;5035274;28;20444;-83
2022/04/27 12:38:28;;;;;;;1.13;0.40;;;13.50;99.90;;;;;;5035176;28;20410;-84
2022/04/27 12:40:56;;;;;;;0.97;0.40;;;13.30;99.90;;;;;;5035795;28;20493;-83
2022/04/27 12:43:24;;;;;;;0.40;0.40;;;13.30;99.90;;;;;;5034407;28;20475;-82
2022/04/27 12:46:11;;;;;;;0.30;0.30;;;13.20;99.90;;;;;;5034886;28;20462;-82
2022/04/27 12:48:38;;;;;;;0.30;0.30;;;13.10;99.90;;;;;;5034792;28;20419;-82
2022/04/27 12:51:08;;;;;;;0.40;0.40;;;13.10;99.90;;;;;;5034762;28;20471;-83
2022/04/27 12:53:35;;;;;;;0.70;0.50;;;13.20;99.90;;;;;;5034584;28;20930;-84
2022/04/27 12:56:09;;;;;;;0.57;0.40;;;13.20;99.90;;;;;;5034390;28;20940;-83
2022/04/27 12:58:37;;;;;;;1.40;0.50;;;13.30;99.90;;;;;;5034718;28;20431;-80
2022/04/27 13:01:04;;;;;;;1.70;0.50;;;13.50;99.90;;;;;;5034102;28;20468;-81
2022/04/27 13:03:31;;;;;;;0.97;0.50;;;13.70;99.90;;;;;;5034126;28;20535;-83
2022/04/27 13:05:58;;;;;;;0.80;0.40;;;13.60;99.90;;;;;;5034248;28;20926;-83
2022/04/27 13:08:26;;;;;;;0.93;0.40;;;13.60;99.90;;;;;;5034095;28;20419;-81
2022/04/27 13:13:38;;;;;;;1.07;0.47;;;13.50;99.90;;;;;;5034237;28;20966;-82
2022/04/27 13:16:06;;;;;;;0.40;0.30;;;13.40;99.90;;;;;;5033917;28;20482;-81
2022/04/27 13:18:33;;;;;;;0.40;0.40;;;13.40;99.90;;;;;;5034100;28;20460;-82
2022/04/27 13:20:59;;;;;;;0.50;0.50;;;13.40;99.90;;;;;;5034275;28;20804;-83
2022/04/27 13:23:26;;;;;;;0.40;0.40;;;13.30;99.90;;;;;;5034332;28;20470;-84
2022/04/27 13:25:53;;;;;;;0.40;0.40;;;13.30;99.90;;;;;;5033720;28;20438;-84
2022/04/27 13:28:22;;;;;;;0.50;0.50;;;13.50;99.90;;;;;;5033366;28;20435;-84
2022/04/27 13:30:50;;;;;;;0.50;0.43;;;13.50;99.90;;;;;;5032841;28;20441;-82
2022/04/27 13:33:17;;;;;;;0.30;0.30;;;13.60;99.90;;;;;;5033933;28;20969;-83
2022/04/27 13:35:44;;;;;;;0.50;0.50;;;13.60;99.90;;;;;;5033684;28;20427;-83
2022/04/27 13:38:11;;;;;;;0.67;0.50;;;13.60;99.90;;;;;;5034031;28;20953;-84
2022/04/27 13:40:38;;;;;;;0.50;0.40;;;13.50;99.90;;;;;;5033923;28;20457;-82
2022/04/27 13:43:05;;;;;;;1.07;0.97;;;13.50;99.90;;;;;;5032745;28;20483;-82
2022/04/27 13:45:32;;;;;;;0.50;0.50;;;13.50;99.90;;;;;;5033725;28;20542;-83
2022/04/27 13:48:00;;;;;;;1.23;0.57;;;13.40;99.90;;;;;;5033841;28;20443;-83
2022/04/27 13:50:28;;;;;;;0.37;0.37;;;13.50;99.90;;;;;;5033661;28;20443;-83
2022/04/27 13:52:56;;;;;;;1.27;0.50;;;13.60;99.90;;;;;;5033588;28;20557;-84
2022/04/27 13:55:23;;;;;;;0.60;0.40;;;13.70;99.90;;;;;;5033751;28;20455;-82
2022/04/27 13:57:50;;;;;;;0.70;0.70;;;13.90;99.90;;;;;;5038748;28;20439;-84
2022/04/27 14:00:17;;;;;;;0.43;0.43;;;14.00;99.90;;;;;;5034154;28;20944;-83
2022/04/27 14:02:44;;;;;;;0.37;0.37;;;14.10;99.90;;;;;;5033446;28;20585;-83
2022/04/27 14:05:12;;;;;;;0.30;0.30;;;14.10;99.90;;;;;;5033682;28;20806;-84
2022/04/27 14:07:42;;;;;;;0.30;0.30;;;14.20;99.90;;;;;;5034098;28;20810;-86
2022/04/27 14:10:10;;;;;;;0.60;0.50;;;14.20;99.90;;;;;;5033977;28;20446;-84
2022/04/27 14:15:22;;;;;;;0.50;0.30;;;14.30;99.90;;;;;;5034079;28;20466;-83
2022/04/27 14:20:34;;;;;;;0.50;0.50;;;14.30;99.90;;;;;;5033827;28;20775;-85
2022/04/27 14:23:01;;;;;;;0.60;0.40;;;14.30;99.90;;;;;;5033640;28;20872;-85
2022/04/27 14:25:28;;;;;;;0.30;0.30;;;14.20;99.90;;;;;;5034155;28;20439;-86
2022/04/27 14:27:55;;;;;;;0.40;0.30;;;14.20;99.90;;;;;;5033950;28;20446;-85
2022/04/27 14:30:22;;;;;;;1.43;0.40;;;14.10;99.90;;;;;;5033975;28;20442;-88
2022/04/27 14:32:49;;;;;;;0.83;0.70;;;14.00;99.90;;;;;;5033603;28;20517;-85
2022/04/27 14:35:17;;;;;;;0.57;0.57;;;13.90;99.90;;;;;;5033323;28;20953;-85
2022/04/27 14:37:45;;;;;;;0.50;0.50;;;13.80;99.90;;;;;;5033747;28;20451;-86
2022/04/27 14:40:13;;;;;;;3.00;0.63;;;13.70;99.90;;;;;;5033883;28;20459;-86
2022/04/27 14:42:40;;;;;;;0.40;0.40;;;13.80;99.90;;;;;;5033698;28;20493;-85
2022/04/27 14:45:08;;;;;;;0.53;0.53;;;13.80;99.90;;;;;;5033840;28;20453;-85
2022/04/27 14:47:35;;;;;;;0.40;0.30;;;14.00;99.90;;;;;;5033695;28;20443;-84